createdAt,value
2017-07-27T00:02:04.210Z,1.60
2017-07-27T00:04:32.737Z,1.20
2017-07-27T00:07:04.211Z,1.20
2017-07-27T00:09:32.635Z,1.40
2017-07-27T00:12:02.002Z,1.17
2017-07-27T00:14:34.094Z,1.03
2017-07-27T00:17:03.416Z,1.30
2017-07-27T00:19:32.922Z,1.07
2017-07-27T00:22:04.481Z,0.90
2017-07-27T00:24:33.903Z,1.00
2017-07-27T00:27:02.378Z,1.13
2017-07-27T00:29:34.093Z,1.47
2017-07-27T00:32:03.433Z,1.17
2017-07-27T00:34:33.222Z,1.00
2017-07-27T00:37:02.861Z,1.23
2017-07-27T00:39:32.539Z,1.30
2017-07-27T00:42:01.907Z,1.10
2017-07-27T00:44:33.774Z,1.40
2017-07-27T00:47:02.390Z,0.90
2017-07-27T00:49:30.817Z,1.00
2017-07-27T00:52:02.562Z,0.90
2017-07-27T00:54:34.053Z,0.47
2017-07-27T00:57:02.536Z,1.23
2017-07-27T00:59:32.361Z,0.90
2017-07-27T01:02:04.059Z,0.80
2017-07-27T01:04:32.469Z,1.00
2017-07-27T01:07:02.443Z,1.13
2017-07-27T01:09:33.512Z,0.90
2017-07-27T01:12:03.372Z,0.97
2017-07-27T01:14:32.954Z,0.80
2017-07-27T01:17:02.391Z,0.60
2017-07-27T01:19:34.118Z,0.73
2017-07-27T01:22:02.715Z,0.43
2017-07-27T01:24:34.208Z,1.00
2017-07-27T01:27:02.716Z,0.60
2017-07-27T01:29:32.349Z,0.60
2017-07-27T01:32:03.979Z,0.80
2017-07-27T01:34:32.050Z,0.70
2017-07-27T01:37:03.872Z,0.80
2017-07-27T01:39:33.589Z,0.80
2017-07-27T01:42:03.276Z,0.60
2017-07-27T01:44:31.738Z,0.50
2017-07-27T01:47:03.502Z,1.20
2017-07-27T01:49:32.958Z,0.93
2017-07-27T01:52:02.624Z,0.70
2017-07-27T01:54:34.030Z,0.43
2017-07-27T01:57:01.771Z,0.77
2017-07-27T01:59:34.162Z,0.60
2017-07-27T02:02:02.663Z,0.60
2017-07-27T02:04:34.341Z,0.70
2017-07-27T02:07:02.778Z,0.80
2017-07-27T02:09:32.529Z,0.57
2017-07-27T02:12:04.220Z,0.60
2017-07-27T02:14:32.734Z,0.80
2017-07-27T02:17:01.316Z,0.50
2017-07-27T02:19:32.718Z,0.40
2017-07-27T02:22:01.235Z,0.63
2017-07-27T02:24:45.573Z,0.70
2017-07-27T02:27:13.996Z,0.50
2017-07-27T02:29:46.164Z,0.50
2017-07-27T02:32:17.621Z,0.57
2017-07-27T02:34:46.131Z,0.40
2017-07-27T02:37:14.649Z,0.40
2017-07-27T02:39:58.787Z,0.50
2017-07-27T02:42:30.922Z,0.50
2017-07-27T02:45:02.527Z,0.63
2017-07-27T02:47:31.041Z,0.90
2017-07-27T02:50:02.635Z,0.57
2017-07-27T02:55:28.621Z,0.47
2017-07-27T02:58:02.346Z,0.60
2017-07-27T03:00:30.840Z,0.67
2017-07-27T03:02:59.248Z,0.93
2017-07-27T03:08:30.777Z,0.90
2017-07-27T03:11:21.328Z,0.70
2017-07-27T03:13:53.491Z,0.80
2017-07-27T03:16:23.012Z,0.77
2017-07-27T03:18:52.567Z,0.80
2017-07-27T03:21:22.114Z,0.83
2017-07-27T03:26:44.686Z,0.80
2017-07-27T03:29:23.621Z,1.03
2017-07-27T03:31:52.444Z,1.33
2017-07-27T03:34:22.457Z,1.00
2017-07-27T03:36:53.959Z,1.00
2017-07-27T03:39:40.586Z,1.17
2017-07-27T03:42:09.643Z,1.30
2017-07-27T03:47:31.094Z,1.43
2017-07-27T03:50:11.653Z,1.33
2017-07-27T03:52:40.159Z,1.43
2017-07-27T03:55:08.581Z,1.50
2017-07-27T03:57:37.004Z,1.50
2017-07-27T04:00:05.478Z,1.43
2017-07-27T04:02:34.367Z,1.37
2017-07-27T04:05:13.283Z,1.50
2017-07-27T04:07:41.807Z,1.43
2017-07-27T04:10:10.255Z,1.73
2017-07-27T04:12:38.690Z,1.60
2017-07-27T04:15:07.095Z,1.23
2017-07-27T04:17:55.492Z,1.47
2017-07-27T04:20:24.023Z,1.83
2017-07-27T04:23:05.742Z,1.67
2017-07-27T04:25:34.164Z,1.60
2017-07-27T04:28:02.561Z,1.93
2017-07-27T04:30:31.015Z,1.50
2017-07-27T04:32:59.430Z,1.77
2017-07-27T04:35:27.897Z,1.67
2017-07-27T04:37:56.472Z,1.47
2017-07-27T04:40:24.885Z,1.60
2017-07-27T04:45:51.083Z,2.00
2017-07-27T04:48:19.533Z,2.40
2017-07-27T04:50:48.031Z,2.03
2017-07-27T04:53:17.059Z,1.90
2017-07-27T04:55:45.567Z,2.23
2017-07-27T04:58:19.845Z,1.43
2017-07-27T05:00:49.506Z,1.47
2017-07-27T05:03:19.216Z,0.87
2017-07-27T05:05:50.955Z,0.60
2017-07-27T05:08:19.497Z,0.70
2017-07-27T05:10:48.131Z,0.50
2017-07-27T05:13:16.781Z,0.53
2017-07-27T05:16:01.993Z,0.50
2017-07-27T05:23:09.081Z,0.80
2017-07-27T05:28:26.603Z,0.60
2017-07-27T05:31:01.505Z,0.70
2017-07-27T05:36:07.658Z,0.73
2017-07-27T05:38:36.282Z,0.90
2017-07-27T05:41:07.789Z,1.00
2017-07-27T05:43:36.337Z,1.00
2017-07-27T05:46:04.831Z,0.83
2017-07-27T05:48:33.329Z,0.83
2017-07-27T05:51:01.793Z,0.80
2017-07-27T05:53:36.516Z,1.33
2017-07-27T05:56:04.964Z,1.17
2017-07-27T05:58:37.087Z,1.30
2017-07-27T06:01:05.615Z,1.20
2017-07-27T06:03:39.192Z,1.00
2017-07-27T06:06:08.681Z,1.00
2017-07-27T06:08:40.343Z,0.97
2017-07-27T06:13:55.637Z,0.87
2017-07-27T06:16:24.097Z,1.00
2017-07-27T06:18:52.572Z,1.10
2017-07-27T06:21:29.091Z,1.27
2017-07-27T06:23:58.318Z,0.93
2017-07-27T06:26:26.854Z,1.00
2017-07-27T06:28:57.115Z,1.37
2017-07-27T06:31:28.857Z,1.57
2017-07-27T06:33:58.306Z,1.70
2017-07-27T06:36:28.571Z,2.27
2017-07-27T06:38:58.293Z,1.60
2017-07-27T06:41:29.168Z,1.30
2017-07-27T06:43:58.110Z,1.30
2017-07-27T06:46:28.493Z,1.30
2017-07-27T06:48:58.223Z,1.70
2017-07-27T06:51:29.587Z,1.97
2017-07-27T06:53:58.409Z,1.47
2017-07-27T06:56:28.315Z,1.43
2017-07-27T06:58:58.393Z,1.30
2017-07-27T07:01:28.549Z,1.10
2017-07-27T07:03:58.639Z,1.40
2017-07-27T07:06:28.097Z,1.10
2017-07-27T07:08:58.506Z,1.00
2017-07-27T07:11:27.020Z,1.50
2017-07-27T07:13:58.794Z,1.10
2017-07-27T07:16:28.375Z,1.20
2017-07-27T07:19:00.013Z,1.40
2017-07-27T07:21:28.487Z,1.53
2017-07-27T07:23:57.929Z,1.10
2017-07-27T07:26:28.195Z,1.20
2017-07-27T07:28:58.687Z,1.10
2017-07-27T07:31:29.181Z,1.00
2017-07-27T07:33:58.511Z,1.27
2017-07-27T07:36:29.331Z,1.30
2017-07-27T07:38:58.573Z,1.33
2017-07-27T07:41:28.127Z,1.17
2017-07-27T07:43:58.659Z,1.07
2017-07-27T07:46:28.253Z,1.20
2017-07-27T07:48:56.705Z,1.03
2017-07-27T07:51:25.957Z,0.97
2017-07-27T07:53:57.651Z,1.33
2017-07-27T07:56:26.133Z,1.60
2017-07-27T07:58:58.150Z,2.33
2017-07-27T08:01:27.437Z,1.50
2017-07-27T08:03:55.881Z,1.97
2017-07-27T08:06:25.549Z,1.80
2017-07-27T08:09:05.030Z,1.80
2017-07-27T08:11:33.441Z,2.10
2017-07-27T08:14:01.900Z,2.30
2017-07-27T08:16:30.339Z,1.50
2017-07-27T08:18:58.763Z,1.60
2017-07-27T08:21:28.279Z,1.83
2017-07-27T08:23:56.787Z,1.80
2017-07-27T08:26:27.365Z,2.70
2017-07-27T08:28:59.706Z,2.43
2017-07-27T08:31:27.988Z,2.07
2017-07-27T08:33:57.930Z,2.83
2017-07-27T08:36:28.100Z,2.67
2017-07-27T08:38:59.466Z,2.13
2017-07-27T08:41:28.049Z,2.57
2017-07-27T08:43:57.901Z,2.50
2017-07-27T08:46:29.479Z,2.27
2017-07-27T08:48:58.501Z,3.03
2017-07-27T08:51:28.222Z,3.03
2017-07-27T08:54:00.271Z,3.53
2017-07-27T08:56:28.787Z,2.93
2017-07-27T08:58:58.734Z,3.30
2017-07-27T09:01:28.373Z,3.70
2017-07-27T09:03:59.767Z,3.67
2017-07-27T09:06:28.298Z,3.40
2017-07-27T09:08:59.873Z,4.40
2017-07-27T09:11:28.354Z,3.60
2017-07-27T09:13:59.867Z,4.60
2017-07-27T09:16:28.342Z,4.10
2017-07-27T09:18:59.862Z,3.97
2017-07-27T09:21:28.366Z,3.80
2017-07-27T09:23:56.824Z,4.10
2017-07-27T09:26:26.338Z,4.23
2017-07-27T09:28:58.429Z,3.60
2017-07-27T09:31:27.783Z,3.67
2017-07-27T09:33:56.916Z,3.57
2017-07-27T09:36:28.208Z,4.30
2017-07-27T09:38:57.553Z,3.73
2017-07-27T09:41:26.051Z,3.17
2017-07-27T09:43:54.703Z,3.43
2017-07-27T09:46:27.000Z,4.20
2017-07-27T09:48:57.428Z,3.50
2017-07-27T09:51:28.341Z,4.00
2017-07-27T09:53:56.818Z,3.17
2017-07-27T09:56:25.387Z,3.50
2017-07-27T09:58:55.537Z,3.13
2017-07-27T10:01:24.909Z,4.23
2017-07-27T10:03:56.464Z,3.50
2017-07-27T10:06:25.161Z,3.53
2017-07-27T10:08:55.540Z,4.17
2017-07-27T10:11:24.179Z,4.20
2017-07-27T10:13:56.880Z,3.60
2017-07-27T10:16:26.741Z,3.97
2017-07-27T10:18:56.614Z,3.97
2017-07-27T10:21:25.239Z,4.93
2017-07-27T10:23:53.641Z,4.00
2017-07-27T10:26:22.298Z,3.33
2017-07-27T10:28:51.712Z,4.03
2017-07-27T10:31:20.285Z,3.83
2017-07-27T10:33:48.960Z,3.93
2017-07-27T10:36:17.722Z,3.67
2017-07-27T10:38:49.316Z,3.13
2017-07-27T10:41:19.912Z,3.20
2017-07-27T10:43:48.654Z,2.90
2017-07-27T10:49:00.229Z,2.50
2017-07-27T10:51:28.739Z,2.80
2017-07-27T10:54:00.123Z,2.97
2017-07-27T10:56:28.568Z,2.33
2017-07-27T10:58:58.395Z,2.50
2017-07-27T11:01:29.449Z,2.53
2017-07-27T11:03:57.838Z,2.20
2017-07-27T11:06:26.306Z,2.40
2017-07-27T11:08:57.491Z,1.80
2017-07-27T11:11:27.890Z,2.30
2017-07-27T11:13:58.066Z,2.67
2017-07-27T11:16:26.539Z,2.73
2017-07-27T11:18:54.988Z,2.40
2017-07-27T11:21:23.499Z,2.30
2017-07-27T11:23:51.954Z,3.00
2017-07-27T11:26:20.364Z,2.57
2017-07-27T11:28:49.526Z,2.60
2017-07-27T11:31:17.968Z,2.93
2017-07-27T11:33:47.178Z,2.80
2017-07-27T11:36:15.662Z,3.60
2017-07-27T11:38:44.120Z,3.70
2017-07-27T11:41:12.553Z,3.37
2017-07-27T11:43:45.593Z,3.27
2017-07-27T11:46:18.783Z,2.57
2017-07-27T11:48:47.334Z,2.20
2017-07-27T11:53:57.956Z,2.37
2017-07-27T11:56:27.955Z,2.20
2017-07-27T11:58:56.339Z,3.17
2017-07-27T12:01:28.430Z,3.00
2017-07-27T12:03:57.333Z,2.90
2017-07-27T12:06:28.846Z,4.00
2017-07-27T12:08:57.310Z,2.87
2017-07-27T12:11:26.862Z,3.17
2017-07-27T12:13:55.312Z,3.17
2017-07-27T12:16:29.922Z,3.80
2017-07-27T12:18:58.369Z,3.90
2017-07-27T12:21:26.862Z,3.10
2017-07-27T12:23:58.597Z,3.03
2017-07-27T12:26:28.258Z,4.10
2017-07-27T12:28:56.663Z,3.13
2017-07-27T12:31:28.487Z,5.13
2017-07-27T12:33:56.886Z,3.60
2017-07-27T12:36:25.420Z,4.10
2017-07-27T12:38:59.999Z,3.90
2017-07-27T12:41:29.955Z,4.67
2017-07-27T12:43:58.533Z,3.70
2017-07-27T12:46:27.030Z,3.90
2017-07-27T12:48:58.601Z,3.20
2017-07-27T12:51:27.025Z,3.57
2017-07-27T12:53:58.571Z,2.97
2017-07-27T12:56:27.146Z,3.93
2017-07-27T12:58:55.584Z,3.40
2017-07-27T13:04:16.569Z,4.13
2017-07-27T13:06:51.133Z,4.80
2017-07-27T13:09:23.910Z,3.53
2017-07-27T13:11:52.695Z,3.80
2017-07-27T13:14:21.576Z,3.43
2017-07-27T13:22:56.131Z,3.90
2017-07-27T13:25:24.931Z,3.90
2017-07-27T13:27:54.508Z,3.73
2017-07-27T13:39:01.147Z,4.47
2017-07-27T13:50:19.765Z,3.90
2017-07-27T14:07:06.271Z,3.67
2017-07-27T14:12:33.687Z,3.20
2017-07-27T14:15:04.976Z,2.60
2017-07-27T14:17:33.492Z,3.20
2017-07-27T14:20:03.108Z,3.17
2017-07-27T14:25:32.285Z,3.60
2017-07-27T14:28:04.287Z,2.43
2017-07-27T14:30:38.395Z,2.07
2017-07-27T14:44:48.854Z,2.63
2017-07-27T14:47:20.525Z,4.33
2017-07-27T14:49:49.128Z,2.73
2017-07-27T14:52:20.701Z,3.43
2017-07-27T14:54:49.251Z,3.20
2017-07-27T14:57:26.439Z,3.07
2017-07-27T15:00:04.942Z,3.20
2017-07-27T15:02:35.070Z,3.00
2017-07-27T15:05:03.817Z,3.37
2017-07-27T15:07:35.533Z,2.63
2017-07-27T15:10:04.615Z,2.83
2017-07-27T15:12:33.928Z,3.40
2017-07-27T15:18:04.789Z,3.00
2017-07-27T15:20:34.071Z,2.20
2017-07-27T15:23:04.476Z,3.13
2017-07-27T15:25:45.869Z,3.20
2017-07-27T15:28:17.329Z,2.60
2017-07-27T15:33:46.135Z,2.77
2017-07-27T15:36:18.367Z,2.93
2017-07-27T15:38:46.945Z,3.00
2017-07-27T15:44:07.976Z,3.43
2017-07-27T15:46:39.333Z,2.70
2017-07-27T15:49:21.618Z,3.70
2017-07-27T15:51:51.259Z,2.80
2017-07-27T15:57:20.130Z,2.43
2017-07-27T16:02:53.298Z,3.30
2017-07-27T16:05:27.744Z,3.03
2017-07-27T16:10:36.705Z,3.40
2017-07-27T16:13:06.753Z,3.53
2017-07-27T16:15:36.146Z,2.47
2017-07-27T16:18:04.581Z,3.30
2017-07-27T16:20:34.023Z,2.30
2017-07-27T16:29:03.315Z,2.77
2017-07-27T16:31:35.509Z,2.60
2017-07-27T16:34:04.053Z,3.43
2017-07-27T16:36:34.414Z,2.93
2017-07-27T16:39:03.312Z,2.83
2017-07-27T16:44:35.416Z,3.70
2017-07-27T16:47:05.015Z,3.80
2017-07-27T16:52:33.161Z,3.90
2017-07-27T16:55:05.005Z,3.67
2017-07-27T16:57:45.220Z,3.07
2017-07-27T17:04:47.114Z,3.17
2017-07-27T17:18:47.849Z,2.73
2017-07-27T17:27:10.250Z,3.50
2017-07-27T17:29:38.752Z,4.10
2017-07-27T17:32:07.133Z,3.70
2017-07-27T17:34:35.533Z,4.03
2017-07-27T17:37:04.610Z,4.33
2017-07-27T17:39:34.053Z,3.23
2017-07-27T17:42:02.556Z,4.33
2017-07-27T17:44:33.186Z,4.27
2017-07-27T17:47:03.054Z,3.73
2017-07-27T17:49:32.393Z,4.03
2017-07-27T17:52:00.825Z,3.83
2017-07-27T17:54:29.213Z,3.63
2017-07-27T17:56:57.582Z,4.13
2017-07-27T17:59:25.971Z,3.90
2017-07-27T18:01:54.385Z,4.60
2017-07-27T18:04:22.762Z,3.90
2017-07-27T18:06:51.125Z,3.60
2017-07-27T18:09:19.850Z,3.73
2017-07-27T18:11:48.233Z,4.80
2017-07-27T18:14:16.613Z,4.93
2017-07-27T18:16:45.016Z,4.30
2017-07-27T18:19:13.403Z,4.57
2017-07-27T18:21:41.789Z,4.30
2017-07-27T18:24:10.247Z,3.83
2017-07-27T18:26:40.315Z,5.27
2017-07-27T18:29:09.073Z,4.93
2017-07-27T18:31:37.513Z,3.63
2017-07-27T18:34:05.698Z,3.90
2017-07-27T18:36:34.086Z,6.23
2017-07-27T18:39:02.501Z,4.17
2017-07-27T18:41:30.911Z,4.37
2017-07-27T18:43:59.309Z,3.87
2017-07-27T18:46:27.718Z,4.20
2017-07-27T18:48:56.877Z,3.90
2017-07-27T18:51:25.291Z,4.03
2017-07-27T18:53:53.497Z,3.40
2017-07-27T18:56:21.890Z,3.90
2017-07-27T18:58:50.089Z,4.33
2017-07-27T19:01:18.491Z,4.40
2017-07-27T19:03:46.858Z,4.10
2017-07-27T19:06:15.227Z,4.47
2017-07-27T19:08:43.621Z,3.00
2017-07-27T19:14:11.389Z,4.20
2017-07-27T19:16:40.049Z,4.90
2017-07-27T19:19:08.431Z,3.40
2017-07-27T19:21:36.818Z,4.80
2017-07-27T19:24:05.095Z,4.70
2017-07-27T19:26:33.497Z,4.13
2017-07-27T19:29:01.886Z,4.17
2017-07-27T19:31:30.249Z,4.10
2017-07-27T19:33:58.633Z,3.30
2017-07-27T19:36:27.028Z,5.10
2017-07-27T19:38:55.398Z,5.93
2017-07-27T19:41:23.777Z,4.90
2017-07-27T19:43:52.155Z,4.07
2017-07-27T19:46:20.611Z,3.77
2017-07-27T19:48:49.013Z,3.97
2017-07-27T19:51:17.537Z,4.10
2017-07-27T19:53:45.921Z,3.90
2017-07-27T19:56:14.301Z,3.90
2017-07-27T19:58:42.761Z,4.17
2017-07-27T20:01:11.125Z,3.70
2017-07-27T20:03:39.508Z,3.57
2017-07-27T20:06:07.886Z,3.60
2017-07-27T20:08:36.338Z,3.47
2017-07-27T20:11:04.761Z,3.70
2017-07-27T20:13:33.158Z,3.60
2017-07-27T20:16:01.540Z,4.37
2017-07-27T20:18:30.070Z,3.50
2017-07-27T20:20:58.457Z,3.70
2017-07-27T20:23:26.856Z,4.07
2017-07-27T20:25:55.226Z,3.03
2017-07-27T20:28:23.599Z,3.67
2017-07-27T20:30:52.085Z,4.13
2017-07-27T20:33:20.467Z,3.70
2017-07-27T20:35:48.890Z,3.20
2017-07-27T20:38:17.273Z,3.70
2017-07-27T20:40:45.657Z,5.30
2017-07-27T20:43:14.049Z,4.30
2017-07-27T20:45:42.446Z,3.57
2017-07-27T20:48:10.494Z,3.80
2017-07-27T20:50:38.878Z,3.27
2017-07-27T20:53:07.256Z,4.13
2017-07-27T20:55:35.651Z,4.07
2017-07-27T20:58:04.030Z,3.40
2017-07-27T21:00:32.078Z,3.50
2017-07-27T21:03:00.460Z,3.17
2017-07-27T21:05:28.835Z,2.67
2017-07-27T21:07:57.221Z,2.83
2017-07-27T21:10:25.601Z,3.17
2017-07-27T21:12:53.997Z,2.60
2017-07-27T21:15:22.399Z,3.17
2017-07-27T21:17:50.765Z,3.30
2017-07-27T21:20:19.197Z,3.27
2017-07-27T21:22:47.573Z,3.90
2017-07-27T21:25:15.958Z,3.83
2017-07-27T21:27:44.332Z,2.77
2017-07-27T21:30:12.769Z,3.00
2017-07-27T21:32:41.167Z,3.60
2017-07-27T21:35:09.577Z,3.30
2017-07-27T21:37:37.987Z,4.80
2017-07-27T21:40:06.361Z,3.97
2017-07-27T21:42:34.745Z,2.80
2017-07-27T21:45:03.137Z,2.97
2017-07-27T21:47:31.517Z,2.53
2017-07-27T21:49:59.924Z,3.20
2017-07-27T21:52:28.298Z,3.20
2017-07-27T21:54:56.682Z,3.17
2017-07-27T21:57:25.107Z,2.80
2017-07-27T21:59:53.492Z,3.10
2017-07-27T22:02:21.885Z,2.90
2017-07-27T22:04:50.261Z,3.13
2017-07-27T22:07:18.643Z,3.00
2017-07-27T22:09:47.030Z,4.00
2017-07-27T22:12:15.402Z,3.50
2017-07-27T22:14:43.805Z,3.37
2017-07-27T22:17:12.192Z,3.77
2017-07-27T22:19:40.561Z,3.17
2017-07-27T22:22:08.974Z,3.77
2017-07-27T22:24:37.350Z,3.43
2017-07-27T22:27:05.734Z,3.20
2017-07-27T22:29:34.105Z,2.80
2017-07-27T22:32:02.473Z,3.00
2017-07-27T22:34:30.851Z,3.30
2017-07-27T22:36:59.232Z,2.20
2017-07-27T22:39:27.622Z,2.83
2017-07-27T22:41:56.001Z,3.50
2017-07-27T22:44:24.373Z,2.40
2017-07-27T22:46:52.772Z,2.80
2017-07-27T22:49:21.141Z,2.50
2017-07-27T22:51:49.525Z,4.43
2017-07-27T22:54:17.901Z,3.80
2017-07-27T22:56:46.277Z,2.80
2017-07-27T22:59:14.664Z,3.10
2017-07-27T23:01:43.030Z,2.60
2017-07-27T23:04:11.425Z,3.10
2017-07-27T23:06:39.789Z,3.00
2017-07-27T23:09:08.156Z,2.80
2017-07-27T23:11:36.530Z,2.27
2017-07-27T23:14:04.929Z,2.50
2017-07-27T23:16:33.329Z,2.87
2017-07-27T23:19:01.697Z,3.07
2017-07-27T23:21:30.071Z,3.57
2017-07-27T23:23:58.450Z,2.87
2017-07-27T23:26:26.827Z,3.03
2017-07-27T23:28:55.298Z,2.80
2017-07-27T23:31:23.694Z,3.77
2017-07-27T23:33:52.089Z,2.67
2017-07-27T23:36:20.469Z,3.40
2017-07-27T23:38:48.845Z,2.07
2017-07-27T23:41:17.235Z,2.50
2017-07-27T23:43:45.615Z,3.20
2017-07-27T23:46:13.995Z,2.50
2017-07-27T23:48:42.401Z,3.10
2017-07-27T23:51:10.792Z,3.33
2017-07-27T23:53:39.194Z,3.67
2017-07-27T23:56:07.574Z,2.70
2017-07-27T23:58:35.937Z,3.20
